Bob Sikes Airport
KCEW : now visible

Airfield :











YOU CAN JOIN US ON...

 
LOGIN :

Register | Disclaimer

   EN    FR    IT 

 









Legend :    VFR   Marginal VFR   IFR   Intensive IFR   Very Intensive IFR
Visi :
Ceiling :
>= 8 km
>= 3000ft
5 to 8 km
1000 to 3000 ft
1500m to 5 km
500 to 1000 ft
800 to 1500m
200 to 500 ft
< 800m
< 200 ft
Symbols :   Thunderstorms  Fog  Heavy snow  Heavy precipitations  Wind > 20 kt







- Airport Elevation : 213 ft


KCEW - Bob Sikes

CURRENT METAR :
  • 212053Z AUTO VRB03KT 10SM SCT075 32/16 A3014 RMK AO2 SLP202 T03220156 56021 $

EXPIRED METARs :
  • 211953Z AUTO 08007G17KT 10SM SCT080 33/14 A3014 RMK AO2 SLP204 T03330144 $
  • 211853Z AUTO 10SM BKN060 BKN070 32/16 A3017 RMK AO2 SLP215 T03220156 $

TAF N/A
No reported NOTAMs for that airfield.



MET'MAP, your aeronautical weather chart ! - Copyright ORBIFLY December 2007 - Disclaimer

ORBIFLY MET'MAP TEAM :

Programming & Development : Alexandra Zaïnal
Concept & Development : Baudouin d'Aumeries
Co-Development & Prog : Marc-Olivier Méhu
Technical & hardware support : Manuel Goepfert

Contact : metmap@orbifly.com




SOURCES & CREDITS :

   NOAA       Earth
Advisory